createdAt,value
2022-10-07T00:01:02.756Z,3.00
2022-10-07T00:03:32.261Z,8.00
2022-10-07T00:06:04.409Z,8.00
2022-10-07T00:08:32.660Z,6.00
2022-10-07T00:11:08.657Z,4.50
2022-10-07T00:13:38.991Z,4.33
2022-10-07T00:16:08.568Z,6.20
2022-10-07T00:18:38.251Z,4.00
2022-10-07T00:21:07.134Z,4.50
2022-10-07T00:23:35.292Z,5.40
2022-10-07T00:26:03.723Z,6.00
2022-10-07T00:28:32.021Z,6.00
2022-10-07T00:31:00.865Z,4.40
2022-10-07T00:33:31.261Z,5.40
2022-10-07T00:36:00.653Z,3.60
2022-10-07T00:38:29.685Z,5.00
2022-10-07T00:40:57.723Z,3.00
2022-10-07T00:43:27.451Z,6.50
2022-10-07T00:45:55.883Z,5.75
2022-10-07T00:48:25.416Z,3.25
2022-10-07T00:50:54.522Z,7.80
2022-10-07T00:53:23.926Z,9.00
2022-10-07T00:55:51.945Z,7.20
2022-10-07T00:58:20.587Z,7.00
2022-10-07T01:00:48.632Z,5.00
2022-10-07T01:03:16.760Z,6.00
2022-10-07T01:05:44.832Z,3.00
2022-10-07T01:08:15.758Z,6.00
2022-10-07T01:10:49.539Z,5.00
2022-10-07T01:13:19.696Z,5.50
2022-10-07T01:15:50.545Z,10.75
2022-10-07T01:18:19.588Z,5.50
2022-10-07T01:20:51.440Z,8.80
2022-10-07T01:23:31.629Z,7.00
2022-10-07T01:26:19.301Z,5.00
2022-10-07T01:28:50.777Z,4.00
2022-10-07T01:31:20.533Z,5.00
2022-10-07T01:33:48.610Z,5.75
2022-10-07T01:36:18.140Z,9.00
2022-10-07T01:38:49.999Z,9.25
2022-10-07T01:41:19.152Z,10.25
2022-10-07T01:43:48.129Z,8.00
2022-10-07T01:46:19.811Z,7.00
2022-10-07T01:48:47.964Z,5.00
2022-10-07T01:51:16.555Z,5.00
2022-10-07T01:53:49.967Z,4.00
2022-10-07T01:56:27.097Z,3.40
2022-10-07T01:59:09.593Z,3.00
2022-10-07T02:01:41.738Z,7.80
2022-10-07T02:04:18.270Z,6.00
2022-10-07T02:06:50.138Z,6.20
2022-10-07T02:09:24.153Z,7.00
2022-10-07T02:11:54.565Z,5.00
2022-10-07T02:14:23.776Z,7.40
2022-10-07T02:16:54.575Z,7.00
2022-10-07T02:19:23.380Z,8.00
2022-10-07T02:21:53.144Z,5.00
2022-10-07T02:24:22.551Z,9.00
2022-10-07T02:26:51.122Z,9.75
2022-10-07T02:29:19.689Z,5.00
2022-10-07T02:31:48.786Z,8.40
2022-10-07T02:34:20.382Z,9.00
2022-10-07T02:36:50.935Z,4.75
2022-10-07T02:39:19.041Z,4.40
2022-10-07T02:41:50.340Z,7.00
2022-10-07T02:44:26.179Z,3.00
2022-10-07T02:46:57.439Z,6.60
2022-10-07T02:49:27.543Z,5.75
2022-10-07T02:51:57.775Z,4.75
2022-10-07T02:54:30.422Z,7.40
2022-10-07T02:56:58.804Z,7.25
2022-10-07T02:59:26.833Z,5.00
2022-10-07T03:01:55.939Z,8.00
2022-10-07T03:04:24.067Z,8.25
2022-10-07T03:06:54.429Z,5.40
2022-10-07T03:09:22.446Z,7.50
2022-10-07T03:11:50.505Z,5.00
2022-10-07T03:14:19.078Z,5.80
2022-10-07T03:16:47.376Z,9.00
2022-10-07T03:19:15.725Z,7.00
2022-10-07T03:21:50.832Z,14.50
2022-10-07T03:24:20.257Z,8.00
2022-10-07T03:26:50.192Z,9.00
2022-10-07T03:29:19.739Z,8.00
2022-10-07T03:31:48.152Z,8.00
2022-10-07T03:34:16.192Z,8.50
2022-10-07T03:36:46.580Z,8.40
2022-10-07T03:39:14.685Z,9.80
2022-10-07T03:41:44.464Z,8.20
2022-10-07T03:44:12.525Z,11.50
2022-10-07T03:46:40.766Z,8.60
2022-10-07T03:49:09.462Z,10.00
2022-10-07T03:51:37.564Z,8.25
2022-10-07T03:54:07.502Z,9.00
2022-10-07T03:56:36.004Z,13.00
2022-10-07T03:59:05.377Z,8.75
2022-10-07T04:01:33.560Z,8.00
2022-10-07T04:04:02.254Z,13.00
2022-10-07T04:06:34.628Z,9.40
2022-10-07T04:09:06.522Z,10.40
2022-10-07T04:11:35.526Z,8.33
2022-10-07T04:14:05.050Z,11.00
2022-10-07T04:16:37.798Z,9.80
2022-10-07T04:19:08.249Z,10.67
2022-10-07T04:21:36.333Z,10.00
2022-10-07T04:24:05.324Z,19.40
2022-10-07T04:26:33.479Z,15.60
2022-10-07T04:29:01.508Z,14.50
2022-10-07T04:31:31.407Z,11.60
2022-10-07T04:34:04.269Z,9.25
2022-10-07T04:36:36.609Z,28.00
2022-10-07T04:39:08.273Z,12.40
2022-10-07T04:41:39.091Z,14.00
2022-10-07T04:44:13.039Z,15.33
2022-10-07T04:46:50.353Z,16.00
2022-10-07T04:49:19.307Z,13.00
2022-10-07T04:51:48.726Z,15.20
2022-10-07T04:54:17.325Z,14.50
2022-10-07T04:56:50.321Z,16.00
2022-10-07T04:59:23.602Z,20.80
2022-10-07T05:01:54.620Z,14.00
2022-10-07T05:04:24.145Z,13.00
2022-10-07T05:06:53.622Z,14.50
2022-10-07T05:09:21.677Z,21.50
2022-10-07T05:11:50.185Z,13.00
2022-10-07T05:14:21.837Z,13.20
2022-10-07T05:16:51.738Z,16.00
2022-10-07T05:19:23.902Z,15.25
2022-10-07T05:21:52.099Z,14.00
2022-10-07T05:24:20.451Z,13.00
2022-10-07T05:26:49.240Z,17.00
2022-10-07T05:29:17.702Z,18.50
2022-10-07T05:31:49.477Z,15.60
2022-10-07T05:34:20.843Z,17.00
2022-10-07T05:36:50.407Z,14.00
2022-10-07T05:39:18.470Z,14.00
2022-10-07T05:42:06.091Z,26.75
2022-10-07T05:44:40.521Z,16.00
2022-10-07T05:47:08.667Z,20.75
2022-10-07T05:49:37.716Z,16.40
2022-10-07T05:52:07.873Z,21.20
2022-10-07T05:54:36.637Z,21.00
2022-10-07T05:57:05.322Z,19.00
2022-10-07T05:59:34.504Z,19.50
2022-10-07T06:02:02.822Z,17.75
2022-10-07T06:04:31.381Z,39.50
2022-10-07T06:06:59.408Z,27.75
2022-10-07T06:09:47.811Z,21.00
2022-10-07T06:12:35.825Z,22.00
2022-10-07T06:15:10.214Z,19.75
2022-10-07T06:17:44.257Z,19.75
2022-10-07T06:20:15.204Z,16.75
2022-10-07T06:22:44.275Z,19.50
2022-10-07T06:25:15.485Z,22.80
2022-10-07T06:27:47.295Z,21.00
2022-10-07T06:30:18.334Z,20.40
2022-10-07T06:32:46.437Z,33.00
2022-10-07T06:35:14.676Z,28.25
2022-10-07T06:37:43.114Z,23.00
2022-10-07T06:40:12.797Z,21.40
2022-10-07T06:42:42.486Z,17.00
2022-10-07T06:45:30.888Z,18.80
2022-10-07T06:47:59.709Z,24.20
2022-10-07T06:50:27.846Z,27.00
2022-10-07T06:52:55.985Z,21.00
2022-10-07T06:55:24.102Z,19.33
2022-10-07T06:57:53.490Z,17.40
2022-10-07T07:00:22.430Z,19.75
2022-10-07T07:02:51.063Z,15.50
2022-10-07T07:05:19.447Z,16.60
2022-10-07T07:07:49.226Z,16.50
2022-10-07T07:10:18.020Z,21.40
2022-10-07T07:12:50.187Z,20.00
2022-10-07T07:15:20.361Z,15.00
2022-10-07T07:17:48.734Z,12.20
2022-10-07T07:20:17.169Z,16.00
2022-10-07T07:22:45.738Z,15.00
2022-10-07T07:25:13.873Z,15.00
2022-10-07T07:27:42.135Z,17.60
2022-10-07T07:30:13.417Z,19.40
2022-10-07T07:32:43.973Z,15.60
2022-10-07T07:35:12.072Z,13.00
2022-10-07T07:37:40.129Z,16.20
2022-10-07T07:40:09.976Z,11.00
2022-10-07T07:42:38.267Z,17.40
2022-10-07T07:45:08.897Z,15.00
2022-10-07T07:47:37.197Z,16.00
2022-10-07T07:50:07.453Z,11.00
2022-10-07T07:52:35.645Z,13.40
2022-10-07T07:55:06.578Z,13.40
2022-10-07T07:57:34.938Z,12.00
2022-10-07T08:00:07.739Z,12.40
2022-10-07T08:02:54.817Z,11.00
2022-10-07T08:05:24.682Z,15.00
2022-10-07T08:07:56.487Z,11.80
2022-10-07T08:10:26.580Z,12.60
2022-10-07T08:12:56.006Z,14.25
2022-10-07T08:15:25.061Z,14.00
2022-10-07T08:17:53.835Z,10.00
2022-10-07T08:20:22.006Z,12.60
2022-10-07T08:22:55.608Z,13.50
2022-10-07T08:25:28.274Z,10.60
2022-10-07T08:27:56.914Z,13.00
2022-10-07T08:30:25.173Z,11.00
2022-10-07T08:32:56.695Z,10.50
2022-10-07T08:35:27.115Z,10.00
2022-10-07T08:37:57.151Z,7.40
2022-10-07T08:40:25.224Z,7.50
2022-10-07T08:42:54.169Z,10.00
2022-10-07T08:45:27.631Z,7.20
2022-10-07T08:47:56.937Z,7.00
2022-10-07T08:50:26.363Z,8.80
2022-10-07T08:52:58.198Z,6.25
2022-10-07T08:55:28.999Z,6.50
2022-10-07T08:58:10.460Z,6.00
2022-10-07T09:00:42.014Z,7.50
2022-10-07T09:03:15.717Z,6.80
2022-10-07T09:05:45.165Z,10.00
2022-10-07T09:08:17.444Z,7.20
2022-10-07T09:10:47.184Z,7.00
2022-10-07T09:13:16.961Z,7.25
2022-10-07T09:16:08.432Z,4.80
2022-10-07T09:18:38.562Z,5.00
2022-10-07T09:21:08.092Z,8.00
2022-10-07T09:23:37.726Z,7.00
2022-10-07T09:26:10.629Z,6.50
2022-10-07T09:28:38.769Z,4.00
2022-10-07T09:31:07.526Z,7.00
2022-10-07T09:33:37.470Z,4.60
2022-10-07T09:36:07.829Z,6.00
2022-10-07T09:38:37.923Z,9.00
2022-10-07T09:41:19.625Z,5.80
2022-10-07T09:44:20.667Z,5.40
2022-10-07T09:46:49.203Z,12.80
2022-10-07T09:49:41.101Z,8.80
2022-10-07T09:52:19.448Z,5.00
2022-10-07T09:54:49.538Z,20.20
2022-10-07T09:57:29.289Z,13.00
2022-10-07T10:00:18.416Z,10.00
2022-10-07T10:02:48.342Z,3.00
2022-10-07T10:05:24.930Z,4.00
2022-10-07T10:07:58.875Z,21.50
2022-10-07T10:10:29.086Z,6.00
2022-10-07T10:12:58.179Z,6.00
2022-10-07T10:15:28.946Z,7.00
2022-10-07T10:17:57.630Z,4.00
2022-10-07T10:20:31.546Z,4.40
2022-10-07T10:23:00.013Z,5.00
2022-10-07T10:25:52.786Z,3.75
2022-10-07T10:28:22.959Z,2.25
2022-10-07T10:30:52.899Z,5.40
2022-10-07T10:33:23.302Z,2.00
2022-10-07T10:35:55.822Z,4.60
2022-10-07T10:38:30.428Z,3.40
2022-10-07T10:41:04.694Z,5.40
2022-10-07T10:43:36.267Z,31.00
2022-10-07T10:46:25.869Z,4.00
2022-10-07T10:48:55.375Z,5.75
2022-10-07T10:51:34.417Z,4.40
2022-10-07T10:54:13.205Z,4.00
2022-10-07T10:56:45.844Z,2.80
2022-10-07T10:59:22.390Z,5.25
2022-10-07T11:01:52.189Z,4.00
2022-10-07T11:04:33.862Z,3.00
2022-10-07T11:07:03.886Z,6.00
2022-10-07T11:09:35.094Z,2.00
2022-10-07T11:12:05.719Z,2.20
2022-10-07T11:14:33.813Z,4.00
2022-10-07T11:17:03.604Z,3.75
2022-10-07T11:19:33.147Z,6.00
2022-10-07T11:22:01.157Z,4.20
2022-10-07T11:24:30.715Z,2.00
2022-10-07T11:26:59.871Z,2.00
2022-10-07T11:29:32.369Z,4.60
2022-10-07T11:32:03.238Z,2.50
2022-10-07T11:34:36.740Z,2.00
2022-10-07T11:37:06.962Z,1.00
2022-10-07T11:39:37.475Z,2.00
2022-10-07T11:42:08.028Z,2.00
2022-10-07T11:44:41.347Z,4.00
2022-10-07T11:47:12.528Z,4.00
2022-10-07T11:49:42.346Z,3.80
2022-10-07T11:52:11.393Z,3.75
2022-10-07T11:54:41.893Z,3.00
2022-10-07T11:57:19.590Z,3.40
2022-10-07T11:59:49.662Z,3.80
2022-10-07T12:02:37.939Z,4.50
2022-10-07T12:05:08.078Z,2.00
2022-10-07T12:07:58.126Z,5.00
2022-10-07T12:10:30.453Z,3.80
2022-10-07T12:13:03.138Z,2.60
2022-10-07T12:15:39.018Z,1.00
2022-10-07T12:18:33.365Z,3.50
2022-10-07T12:21:08.076Z,1.00
2022-10-07T12:23:46.081Z,1.00
2022-10-07T12:26:51.402Z,3.50
2022-10-07T12:29:28.831Z,1.00
2022-10-07T12:31:58.274Z,3.00
2022-10-07T12:34:40.271Z,0.80
2022-10-07T12:37:46.501Z,3.50
2022-10-07T12:40:19.354Z,3.00
2022-10-07T12:42:55.990Z,0.75
2022-10-07T12:45:24.396Z,1.25
2022-10-07T12:47:55.318Z,0.00
2022-10-07T12:50:23.376Z,4.00
2022-10-07T12:52:53.067Z,1.40
2022-10-07T12:55:27.128Z,1.00
2022-10-07T12:58:18.435Z,3.00
2022-10-07T13:00:57.760Z,1.00
2022-10-07T13:03:53.056Z,3.00
2022-10-07T13:06:37.912Z,3.00
2022-10-07T13:09:31.569Z,2.67
2022-10-07T13:12:17.430Z,5.00
2022-10-07T13:14:53.906Z,5.60
2022-10-07T13:17:28.285Z,4.00
2022-10-07T13:20:02.662Z,3.00
2022-10-07T13:22:31.865Z,2.00
2022-10-07T13:25:00.156Z,4.00
2022-10-07T13:27:30.436Z,2.00
2022-10-07T13:29:59.530Z,6.60
2022-10-07T13:32:29.843Z,2.00
2022-10-07T13:34:59.695Z,1.00
2022-10-07T13:37:29.279Z,2.00
2022-10-07T13:39:57.806Z,2.00
2022-10-07T13:42:28.654Z,2.50
2022-10-07T13:45:01.483Z,1.00
2022-10-07T13:47:31.509Z,1.20
2022-10-07T13:50:01.018Z,3.60
2022-10-07T13:52:31.606Z,1.00
2022-10-07T13:54:59.856Z,3.50
2022-10-07T13:57:29.260Z,1.60
2022-10-07T13:59:57.297Z,2.40
2022-10-07T14:02:25.353Z,4.40
2022-10-07T14:04:54.444Z,2.50
2022-10-07T14:07:23.810Z,1.00
2022-10-07T14:09:57.135Z,1.00
2022-10-07T14:12:30.116Z,2.00
2022-10-07T14:15:03.722Z,0.00
2022-10-07T14:17:35.194Z,2.80
2022-10-07T14:20:05.627Z,2.00
2022-10-07T14:22:36.102Z,1.75
2022-10-07T14:25:05.228Z,6.00
2022-10-07T14:27:49.077Z,2.00
2022-10-07T14:30:55.856Z,2.80
2022-10-07T14:33:59.370Z,2.00
2022-10-07T14:36:27.491Z,1.00
2022-10-07T14:38:59.584Z,2.00
2022-10-07T14:41:28.909Z,1.00
2022-10-07T14:44:00.128Z,2.00
2022-10-07T14:46:28.920Z,3.00
2022-10-07T14:48:56.993Z,4.20
2022-10-07T14:51:27.023Z,1.25
2022-10-07T14:53:57.668Z,2.00
2022-10-07T14:56:26.941Z,2.20
2022-10-07T14:58:55.841Z,1.00
2022-10-07T15:01:23.988Z,1.40
2022-10-07T15:03:52.844Z,1.00
2022-10-07T15:06:21.632Z,2.75
2022-10-07T15:08:49.822Z,3.00
2022-10-07T15:11:20.312Z,2.80
2022-10-07T15:13:48.617Z,5.20
2022-10-07T15:16:17.589Z,3.00
2022-10-07T15:18:51.045Z,1.40
2022-10-07T15:21:20.358Z,5.00
2022-10-07T15:23:51.514Z,0.00
2022-10-07T15:26:23.520Z,1.60
2022-10-07T15:28:52.470Z,0.20
2022-10-07T15:31:21.062Z,1.00
2022-10-07T15:33:49.196Z,2.00
2022-10-07T15:36:17.846Z,2.00
2022-10-07T15:38:45.902Z,3.00
2022-10-07T15:41:29.016Z,3.00
2022-10-07T15:43:58.074Z,1.75
2022-10-07T15:46:26.146Z,4.20
2022-10-07T15:48:56.280Z,3.00
2022-10-07T15:51:25.592Z,3.00
2022-10-07T15:53:53.770Z,2.00
2022-10-07T15:56:23.170Z,4.00
2022-10-07T15:58:51.204Z,3.00
2022-10-07T16:01:19.256Z,1.75
2022-10-07T16:03:48.821Z,5.00
2022-10-07T16:06:17.872Z,3.00
2022-10-07T16:08:46.022Z,2.60
2022-10-07T16:11:14.121Z,1.60
2022-10-07T16:13:44.247Z,2.40
2022-10-07T16:16:13.148Z,2.00
2022-10-07T16:18:41.868Z,2.80
2022-10-07T16:21:10.728Z,2.20
2022-10-07T16:23:39.386Z,2.00
2022-10-07T16:26:07.798Z,2.50
2022-10-07T16:28:53.474Z,3.00
2022-10-07T16:31:22.934Z,3.00
2022-10-07T16:33:52.107Z,8.80
2022-10-07T16:36:21.624Z,4.00
2022-10-07T16:38:50.006Z,3.40
2022-10-07T16:41:18.291Z,2.00
2022-10-07T16:43:46.336Z,4.00
2022-10-07T16:46:15.535Z,5.40
2022-10-07T16:48:45.392Z,4.00
2022-10-07T16:51:14.666Z,4.00
2022-10-07T16:53:42.696Z,2.00
2022-10-07T16:56:10.905Z,3.25
2022-10-07T16:58:39.613Z,5.20
2022-10-07T17:01:09.706Z,4.00
2022-10-07T17:03:38.267Z,4.60
2022-10-07T17:06:08.819Z,6.00
2022-10-07T17:08:41.933Z,1.50
2022-10-07T17:11:28.505Z,2.00
2022-10-07T17:13:57.101Z,2.00
2022-10-07T17:16:25.203Z,4.00
2022-10-07T17:18:53.255Z,3.40
2022-10-07T17:21:22.726Z,2.00
2022-10-07T17:23:50.738Z,2.00
2022-10-07T17:26:18.922Z,2.40
2022-10-07T17:28:49.932Z,5.00
2022-10-07T17:31:18.223Z,3.00
2022-10-07T17:33:46.448Z,2.00
2022-10-07T17:36:14.506Z,2.00
2022-10-07T17:38:44.802Z,1.60
2022-10-07T17:41:14.003Z,2.00
2022-10-07T17:43:42.050Z,4.00
2022-10-07T17:46:12.820Z,4.00
2022-10-07T17:48:43.349Z,2.00
2022-10-07T17:51:11.370Z,3.00
2022-10-07T17:53:40.294Z,2.00
2022-10-07T17:56:10.901Z,4.00
2022-10-07T17:58:39.366Z,5.00
2022-10-07T18:01:08.112Z,3.00
2022-10-07T18:03:37.899Z,3.50
2022-10-07T18:06:07.185Z,6.00
2022-10-07T18:08:35.417Z,5.00
2022-10-07T18:11:04.571Z,11.40
2022-10-07T18:13:51.650Z,33.40
2022-10-07T18:16:20.520Z,26.40
2022-10-07T18:18:48.722Z,21.60
2022-10-07T18:21:16.733Z,24.80
2022-10-07T18:23:44.775Z,35.50
2022-10-07T18:26:13.587Z,28.75
2022-10-07T18:28:43.033Z,29.50
2022-10-07T18:31:12.246Z,31.00
2022-10-07T18:33:40.492Z,42.00
2022-10-07T18:36:09.925Z,29.50
2022-10-07T18:38:38.742Z,30.40
2022-10-07T18:41:07.658Z,23.80
2022-10-07T18:43:35.715Z,22.75
2022-10-07T18:46:06.526Z,32.50
2022-10-07T18:48:36.796Z,30.50
2022-10-07T18:51:05.043Z,29.00
2022-10-07T18:53:33.707Z,25.20
2022-10-07T18:56:01.979Z,24.00
2022-10-07T18:58:30.022Z,28.80
2022-10-07T19:00:58.118Z,24.50
2022-10-07T19:03:27.566Z,24.00
2022-10-07T19:05:55.579Z,30.80
2022-10-07T19:08:23.637Z,22.00
2022-10-07T19:10:51.846Z,26.25
2022-10-07T19:13:37.414Z,18.00
2022-10-07T19:16:05.619Z,22.80
2022-10-07T19:18:35.622Z,21.80
2022-10-07T19:21:04.112Z,18.00
2022-10-07T19:23:32.151Z,18.20
2022-10-07T19:26:00.245Z,16.80
2022-10-07T19:28:28.351Z,26.00
2022-10-07T19:30:57.309Z,18.00
2022-10-07T19:33:25.504Z,23.00
2022-10-07T19:35:57.926Z,21.50
2022-10-07T19:38:27.174Z,17.80
2022-10-07T19:40:56.031Z,20.25
2022-10-07T19:43:24.032Z,20.80
2022-10-07T19:45:52.370Z,18.80
2022-10-07T19:48:20.407Z,15.00
2022-10-07T19:50:48.417Z,15.50
2022-10-07T19:53:17.796Z,16.00
2022-10-07T19:55:46.277Z,21.20
2022-10-07T19:58:14.319Z,19.40
2022-10-07T20:00:42.340Z,24.40
2022-10-07T20:03:10.391Z,16.60
2022-10-07T20:05:40.172Z,22.40
2022-10-07T20:08:10.272Z,19.80
2022-10-07T20:10:39.836Z,25.80
2022-10-07T20:13:07.880Z,22.75
2022-10-07T20:15:35.909Z,19.33
2022-10-07T20:18:04.032Z,17.40
2022-10-07T20:20:32.194Z,19.00
2022-10-07T20:23:01.120Z,25.00
2022-10-07T20:25:29.156Z,33.20
2022-10-07T20:27:58.698Z,20.40
2022-10-07T20:30:26.847Z,20.00
2022-10-07T20:32:54.881Z,20.75
2022-10-07T20:35:24.324Z,27.00
2022-10-07T20:37:52.446Z,22.60
2022-10-07T20:40:34.374Z,29.50
2022-10-07T20:43:04.010Z,23.60
2022-10-07T20:45:52.342Z,22.00
2022-10-07T20:48:20.368Z,22.20
2022-10-07T20:50:48.397Z,25.60
2022-10-07T20:53:16.405Z,23.00
2022-10-07T20:55:45.351Z,23.50
2022-10-07T20:58:14.942Z,30.00
2022-10-07T21:00:42.974Z,27.00
2022-10-07T21:03:11.597Z,26.00
2022-10-07T21:05:39.620Z,27.00
2022-10-07T21:08:07.800Z,23.20
2022-10-07T21:10:35.848Z,19.40
2022-10-07T21:13:03.909Z,27.25
2022-10-07T21:15:33.278Z,21.00
2022-10-07T21:18:01.309Z,18.60
2022-10-07T21:20:29.318Z,19.00
2022-10-07T21:22:57.353Z,18.00
2022-10-07T21:25:25.437Z,19.20
2022-10-07T21:27:54.017Z,18.00
2022-10-07T21:30:22.027Z,20.60
2022-10-07T21:32:51.416Z,14.80
2022-10-07T21:35:19.421Z,16.20
2022-10-07T21:37:47.568Z,14.60
2022-10-07T21:40:15.686Z,15.80
2022-10-07T21:42:43.911Z,14.00
2022-10-07T21:45:12.237Z,16.80
2022-10-07T21:47:40.264Z,20.00
2022-10-07T21:50:11.284Z,24.00
2022-10-07T21:52:39.311Z,18.00
2022-10-07T21:55:08.176Z,17.40
2022-10-07T21:57:36.726Z,18.00
2022-10-07T22:00:05.261Z,14.00
2022-10-07T22:02:40.089Z,18.00
2022-10-07T22:05:11.452Z,16.80
2022-10-07T22:07:57.138Z,16.20
2022-10-07T22:10:25.147Z,14.00
2022-10-07T22:12:53.177Z,25.50
2022-10-07T22:15:21.256Z,16.60
2022-10-07T22:17:50.750Z,20.00
2022-10-07T22:20:20.118Z,19.00
2022-10-07T22:22:48.991Z,20.00
2022-10-07T22:25:17.301Z,17.25
2022-10-07T22:27:45.329Z,17.60
2022-10-07T22:30:14.160Z,18.60
2022-10-07T22:32:42.213Z,20.75
2022-10-07T22:35:30.286Z,24.00
2022-10-07T22:37:59.717Z,26.25
2022-10-07T22:40:27.956Z,23.60
2022-10-07T22:42:55.996Z,28.40
2022-10-07T22:45:24.015Z,22.60
2022-10-07T22:47:52.060Z,32.60
2022-10-07T22:50:20.069Z,20.75
2022-10-07T22:52:49.255Z,31.60
2022-10-07T22:55:21.398Z,23.40
2022-10-07T22:57:49.477Z,25.40
2022-10-07T23:00:17.671Z,30.00
2022-10-07T23:02:46.149Z,30.50
2022-10-07T23:05:14.650Z,23.00
2022-10-07T23:07:42.684Z,26.00
2022-10-07T23:10:11.198Z,25.60
2022-10-07T23:12:40.658Z,24.80
2022-10-07T23:15:09.197Z,24.20
2022-10-07T23:17:37.228Z,23.50
2022-10-07T23:20:05.978Z,28.60
2022-10-07T23:22:34.800Z,33.60
2022-10-07T23:25:04.436Z,24.50
2022-10-07T23:27:32.481Z,24.00
2022-10-07T23:30:02.095Z,25.50
2022-10-07T23:32:30.130Z,18.40
2022-10-07T23:34:58.142Z,25.20
2022-10-07T23:37:26.283Z,16.00
2022-10-07T23:39:54.287Z,18.00
2022-10-07T23:42:22.326Z,19.00
2022-10-07T23:44:50.365Z,22.50
2022-10-07T23:47:22.932Z,18.80
2022-10-07T23:49:50.946Z,19.00
2022-10-07T23:52:19.423Z,16.00
2022-10-07T23:54:47.450Z,12.20
2022-10-07T23:57:15.489Z,15.50
2022-10-07T23:59:43.507Z,15.25
